createdAt,value
2022-10-31T00:00:02.417Z,0
2022-10-31T00:15:02.854Z,0
2022-10-31T00:30:02.401Z,0
2022-10-31T00:45:02.737Z,0
2022-10-31T01:00:03.385Z,0
2022-10-31T01:15:02.617Z,0
2022-10-31T01:30:03.050Z,0
2022-10-31T01:45:02.561Z,0
2022-10-31T02:00:02.936Z,0
2022-10-31T02:15:02.410Z,0
2022-10-31T02:30:02.832Z,0
2022-10-31T02:45:02.452Z,0
2022-10-31T03:00:02.684Z,0
2022-10-31T03:15:03.118Z,0
2022-10-31T03:30:02.541Z,0
2022-10-31T03:45:02.968Z,0
2022-10-31T04:00:02.422Z,0
2022-10-31T04:15:02.836Z,0
2022-10-31T04:30:02.435Z,0
2022-10-31T04:45:02.738Z,0
2022-10-31T05:00:03.167Z,0
2022-10-31T05:15:02.599Z,0
2022-10-31T05:30:02.199Z,0
2022-10-31T05:45:02.474Z,0
2022-10-31T06:00:02.923Z,0
2022-10-31T06:15:02.452Z,0
2022-10-31T06:30:02.785Z,2
2022-10-31T06:45:03.378Z,14
2022-10-31T07:00:02.642Z,30
2022-10-31T07:15:03.076Z,49
2022-10-31T07:30:02.509Z,68
2022-10-31T07:45:02.960Z,68
2022-10-31T08:00:02.501Z,77
2022-10-31T08:15:02.838Z,82
2022-10-31T08:30:02.469Z,107
2022-10-31T08:45:02.698Z,97
2022-10-31T09:00:03.142Z,132
2022-10-31T09:15:02.577Z,232
2022-10-31T09:30:03.036Z,267
2022-10-31T09:45:02.483Z,298
2022-10-31T10:00:02.915Z,289
2022-10-31T10:15:02.506Z,364
2022-10-31T10:30:02.795Z,311
2022-10-31T10:45:03.244Z,164
2022-10-31T11:00:02.673Z,152
2022-10-31T11:15:03.130Z,204
2022-10-31T11:30:02.553Z,192
2022-10-31T11:45:03.008Z,129
2022-10-31T12:00:02.536Z,155
2022-10-31T12:15:02.877Z,220
2022-10-31T12:30:02.535Z,182
2022-10-31T12:45:02.736Z,124
2022-10-31T13:00:03.169Z,82
2022-10-31T13:15:02.629Z,98
2022-10-31T13:30:03.077Z,61
2022-10-31T13:45:02.558Z,44
2022-10-31T14:00:02.935Z,41
2022-10-31T14:15:02.542Z,43
2022-10-31T14:30:02.833Z,44
2022-10-31T14:45:03.282Z,32
2022-10-31T15:00:04.067Z,23
2022-10-31T15:15:03.137Z,16
2022-10-31T15:30:02.576Z,12
2022-10-31T15:45:03.007Z,3
2022-10-31T16:00:02.570Z,0
2022-10-31T16:15:02.870Z,0
2022-10-31T16:30:02.746Z,0
2022-10-31T17:00:03.204Z,0
2022-10-31T17:15:02.644Z,0
2022-10-31T17:30:03.092Z,0
2022-10-31T17:45:02.580Z,0
2022-10-31T18:00:02.943Z,0
2022-10-31T18:15:02.596Z,0
2022-10-31T18:30:02.838Z,0
2022-10-31T18:45:11.446Z,0
2022-10-31T19:00:02.720Z,0
2022-10-31T19:15:03.141Z,0
2022-10-31T19:30:02.617Z,0
2022-10-31T19:45:03.019Z,0
2022-10-31T20:00:02.593Z,0
2022-10-31T20:15:02.897Z,0
2022-10-31T20:30:02.343Z,0
2022-10-31T20:45:02.794Z,0
2022-10-31T21:00:03.241Z,0
2022-10-31T21:15:02.681Z,0
2022-10-31T21:30:03.124Z,0
2022-10-31T21:45:02.632Z,0
2022-10-31T22:00:03.025Z,0
2022-10-31T22:15:02.636Z,0
2022-10-31T22:30:02.901Z,0
2022-10-31T22:45:02.332Z,0
2022-10-31T23:00:02.770Z,0
2022-10-31T23:15:02.208Z,0
2022-10-31T23:30:02.661Z,0
2022-10-31T23:45:03.099Z,0
